sensor_id;sensor_type;location;lat;lon;timestamp;pressure;altitude;pressure_sealevel;temperature;humidity
64933;BME280;51446;53.850;10.662;2023-12-20T00:00:14;100817.13;;;4.70;100.00
64933;BME280;51446;53.850;10.662;2023-12-20T00:02:40;100822.84;;;4.61;100.00
64933;BME280;51446;53.850;10.662;2023-12-20T00:05:05;100832.78;;;4.50;100.00
64933;BME280;51446;53.850;10.662;2023-12-20T00:07:31;100825.00;;;4.50;100.00
64933;BME280;51446;53.850;10.662;2023-12-20T00:09:56;100817.03;;;4.46;100.00
64933;BME280;51446;53.850;10.662;2023-12-20T00:12:21;100813.91;;;4.55;100.00
64933;BME280;51446;53.850;10.662;2023-12-20T00:14:47;100818.13;;;4.51;100.00
64933;BME280;51446;53.850;10.662;2023-12-20T00:17:12;100816.44;;;4.53;100.00
64933;BME280;51446;53.850;10.662;2023-12-20T00:19:37;100805.88;;;4.48;100.00
64933;BME280;51446;53.850;10.662;2023-12-20T00:22:03;100808.78;;;4.56;100.00
64933;BME280;51446;53.850;10.662;2023-12-20T00:24:28;100811.19;;;4.51;100.00
64933;BME280;51446;53.850;10.662;2023-12-20T00:26:53;100805.88;;;4.48;100.00
64933;BME280;51446;53.850;10.662;2023-12-20T00:29:18;100802.19;;;4.43;100.00
64933;BME280;51446;53.850;10.662;2023-12-20T00:31:43;100802.38;;;4.48;100.00
64933;BME280;51446;53.850;10.662;2023-12-20T00:34:09;100798.56;;;4.61;100.00
64933;BME280;51446;53.850;10.662;2023-12-20T00:36:34;100790.94;;;4.43;100.00
64933;BME280;51446;53.850;10.662;2023-12-20T00:38:59;100802.47;;;4.49;100.00
64933;BME280;51446;53.850;10.662;2023-12-20T00:41:25;100796.25;;;4.46;100.00
64933;BME280;51446;53.850;10.662;2023-12-20T00:43:50;100792.97;;;4.50;100.00
64933;BME280;51446;53.850;10.662;2023-12-20T00:46:15;100799.19;;;4.55;100.00
64933;BME280;51446;53.850;10.662;2023-12-20T00:48:41;100803.19;;;4.68;100.00
64933;BME280;51446;53.850;10.662;2023-12-20T00:51:07;100807.28;;;4.61;100.00
64933;BME280;51446;53.850;10.662;2023-12-20T00:53:32;100795.16;;;4.62;100.00
64933;BME280;51446;53.850;10.662;2023-12-20T00:55:58;100796.19;;;4.65;100.00
64933;BME280;51446;53.850;10.662;2023-12-20T00:58:23;100785.47;;;4.58;100.00
64933;BME280;51446;53.850;10.662;2023-12-20T01:00:49;100792.56;;;4.62;100.00
64933;BME280;51446;53.850;10.662;2023-12-20T01:03:14;100784.03;;;4.43;100.00
64933;BME280;51446;53.850;10.662;2023-12-20T01:05:40;100782.28;;;4.42;100.00
64933;BME280;51446;53.850;10.662;2023-12-20T01:08:05;100785.03;;;4.47;100.00
64933;BME280;51446;53.850;10.662;2023-12-20T01:10:31;100784.41;;;4.53;100.00
64933;BME280;51446;53.850;10.662;2023-12-20T01:12:57;100786.66;;;4.66;100.00
64933;BME280;51446;53.850;10.662;2023-12-20T01:15:22;100783.66;;;4.78;100.00
64933;BME280;51446;53.850;10.662;2023-12-20T01:17:48;100773.88;;;4.93;100.00
64933;BME280;51446;53.850;10.662;2023-12-20T01:20:14;100772.69;;;4.85;100.00
64933;BME280;51446;53.850;10.662;2023-12-20T01:22:39;100778.22;;;4.72;100.00
64933;BME280;51446;53.850;10.662;2023-12-20T01:25:05;100763.38;;;4.90;100.00
64933;BME280;51446;53.850;10.662;2023-12-20T01:27:30;100769.09;;;4.81;100.00
64933;BME280;51446;53.850;10.662;2023-12-20T01:29:56;100755.66;;;4.71;100.00
64933;BME280;51446;53.850;10.662;2023-12-20T01:32:21;100766.81;;;4.68;100.00
64933;BME280;51446;53.850;10.662;2023-12-20T01:34:47;100753.59;;;4.62;100.00
64933;BME280;51446;53.850;10.662;2023-12-20T01:37:13;100753.88;;;4.69;100.00
64933;BME280;51446;53.850;10.662;2023-12-20T01:39:38;100760.91;;;4.49;100.00
64933;BME280;51446;53.850;10.662;2023-12-20T01:42:04;100757.41;;;4.49;100.00
64933;BME280;51446;53.850;10.662;2023-12-20T01:44:29;100737.72;;;4.54;100.00
64933;BME280;51446;53.850;10.662;2023-12-20T01:46:54;100753.59;;;4.62;100.00
64933;BME280;51446;53.850;10.662;2023-12-20T01:49:20;100754.34;;;4.59;100.00
64933;BME280;51446;53.850;10.662;2023-12-20T01:51:46;100749.00;;;4.55;100.00
64933;BME280;51446;53.850;10.662;2023-12-20T01:54:12;100750.53;;;4.49;100.00
64933;BME280;51446;53.850;10.662;2023-12-20T01:56:39;100740.78;;;4.66;100.00
64933;BME280;51446;53.850;10.662;2023-12-20T01:59:06;100745.00;;;4.63;100.00
64933;BME280;51446;53.850;10.662;2023-12-20T02:01:32;100740.44;;;4.57;100.00
64933;BME280;51446;53.850;10.662;2023-12-20T02:03:58;100748.28;;;4.59;100.00
64933;BME280;51446;53.850;10.662;2023-12-20T02:06:25;100741.25;;;4.56;100.00
64933;BME280;51446;53.850;10.662;2023-12-20T02:08:54;100745.81;;;4.62;100.00
64933;BME280;51446;53.850;10.662;2023-12-20T02:11:20;100736.97;;;4.79;100.00
64933;BME280;51446;53.850;10.662;2023-12-20T02:13:45;100732.13;;;4.66;100.00
64933;BME280;51446;53.850;10.662;2023-12-20T02:16:10;100724.72;;;4.77;100.00
64933;BME280;51446;53.850;10.662;2023-12-20T02:18:36;100721.69;;;4.87;100.00
64933;BME280;51446;53.850;10.662;2023-12-20T02:21:01;100713.47;;;4.76;100.00
64933;BME280;51446;53.850;10.662;2023-12-20T02:23:28;100713.22;;;4.70;100.00
64933;BME280;51446;53.850;10.662;2023-12-20T02:25:54;100700.41;;;4.75;100.00
64933;BME280;51446;53.850;10.662;2023-12-20T02:28:19;100701.28;;;4.75;100.00
64933;BME280;51446;53.850;10.662;2023-12-20T02:30:44;100703.59;;;4.67;100.00
64933;BME280;51446;53.850;10.662;2023-12-20T02:33:12;100703.00;;;4.75;100.00
64933;BME280;51446;53.850;10.662;2023-12-20T02:35:37;100699.53;;;4.74;100.00
64933;BME280;51446;53.850;10.662;2023-12-20T02:38:02;100694.94;;;4.67;100.00
64933;BME280;51446;53.850;10.662;2023-12-20T02:40:28;100688.56;;;4.81;100.00
64933;BME280;51446;53.850;10.662;2023-12-20T02:42:53;100685.16;;;4.84;100.00
64933;BME280;51446;53.850;10.662;2023-12-20T02:45:18;100678.94;;;4.79;100.00
64933;BME280;51446;53.850;10.662;2023-12-20T02:47:43;100679.16;;;4.85;100.00
64933;BME280;51446;53.850;10.662;2023-12-20T02:50:09;100676.00;;;4.94;100.00
64933;BME280;51446;53.850;10.662;2023-12-20T02:52:34;100675.91;;;4.91;100.00
64933;BME280;51446;53.850;10.662;2023-12-20T02:54:59;100676.72;;;4.90;100.00
64933;BME280;51446;53.850;10.662;2023-12-20T02:57:24;100679.47;;;4.93;100.00
64933;BME280;51446;53.850;10.662;2023-12-20T02:59:50;100671.66;;;4.93;100.00
64933;BME280;51446;53.850;10.662;2023-12-20T03:02:15;100662.56;;;5.06;100.00
64933;BME280;51446;53.850;10.662;2023-12-20T03:04:40;100672.69;;;4.98;100.00
64933;BME280;51446;53.850;10.662;2023-12-20T03:07:05;100653.63;;;4.97;100.00
64933;BME280;51446;53.850;10.662;2023-12-20T03:09:31;100645.88;;;4.99;100.00
64933;BME280;51446;53.850;10.662;2023-12-20T03:11:56;100643.66;;;5.10;100.00
64933;BME280;51446;53.850;10.662;2023-12-20T03:14:21;100644.47;;;5.07;100.00
64933;BME280;51446;53.850;10.662;2023-12-20T03:16:49;100644.31;;;5.04;100.00
64933;BME280;51446;53.850;10.662;2023-12-20T03:19:15;100639.91;;;5.01;100.00
64933;BME280;51446;53.850;10.662;2023-12-20T03:21:40;100641.41;;;4.95;100.00
64933;BME280;51446;53.850;10.662;2023-12-20T03:24:05;100646.97;;;5.06;100.00
64933;BME280;51446;53.850;10.662;2023-12-20T03:26:30;100637.31;;;5.01;100.00
64933;BME280;51446;53.850;10.662;2023-12-20T03:28:56;100631.47;;;5.07;100.00
64933;BME280;51446;53.850;10.662;2023-12-20T03:31:21;100607.69;;;4.96;100.00
64933;BME280;51446;53.850;10.662;2023-12-20T03:33:47;100619.13;;;5.01;100.00
64933;BME280;51446;53.850;10.662;2023-12-20T03:36:12;100599.63;;;4.89;100.00
64933;BME280;51446;53.850;10.662;2023-12-20T03:38:37;100604.19;;;4.96;100.00
64933;BME280;51446;53.850;10.662;2023-12-20T03:41:02;100608.78;;;5.03;100.00
64933;BME280;51446;53.850;10.662;2023-12-20T03:43:28;100612.94;;;4.98;100.00
64933;BME280;51446;53.850;10.662;2023-12-20T03:45:53;100609.44;;;4.97;100.00
64933;BME280;51446;53.850;10.662;2023-12-20T03:48:18;100605.28;;;5.02;100.00
64933;BME280;51446;53.850;10.662;2023-12-20T03:50:43;100603.69;;;5.06;100.00
64933;BME280;51446;53.850;10.662;2023-12-20T03:53:09;100596.72;;;5.05;100.00
64933;BME280;51446;53.850;10.662;2023-12-20T03:55:34;100586.31;;;5.05;100.00
64933;BME280;51446;53.850;10.662;2023-12-20T03:57:59;100589.75;;;5.04;100.00
64933;BME280;51446;53.850;10.662;2023-12-20T04:00:24;100586.31;;;5.05;100.00
64933;BME280;51446;53.850;10.662;2023-12-20T04:02:50;100582.84;;;5.04;100.00
64933;BME280;51446;53.850;10.662;2023-12-20T04:05:15;100578.47;;;5.03;100.00
64933;BME280;51446;53.850;10.662;2023-12-20T04:07:40;100577.84;;;5.11;100.00
64933;BME280;51446;53.850;10.662;2023-12-20T04:10:06;100561.34;;;5.09;100.00
64933;BME280;51446;53.850;10.662;2023-12-20T04:12:32;100556.91;;;5.06;100.00
64933;BME280;51446;53.850;10.662;2023-12-20T04:14:58;100554.25;;;5.04;100.00
64933;BME280;51446;53.850;10.662;2023-12-20T04:17:23;100557.59;;;5.00;100.00
64933;BME280;51446;53.850;10.662;2023-12-20T04:19:49;100558.06;;;5.14;100.00
64933;BME280;51446;53.850;10.662;2023-12-20T04:22:14;100546.66;;;5.11;100.00
64933;BME280;51446;53.850;10.662;2023-12-20T04:24:40;100550.91;;;5.07;100.00
64933;BME280;51446;53.850;10.662;2023-12-20T04:27:07;100558.75;;;5.09;100.00
64933;BME280;51446;53.850;10.662;2023-12-20T04:29:33;100550.81;;;5.06;100.00
64933;BME280;51446;53.850;10.662;2023-12-20T04:31:58;100542.34;;;5.11;100.00
64933;BME280;51446;53.850;10.662;2023-12-20T04:34:23;100555.38;;;5.13;100.00
64933;BME280;51446;53.850;10.662;2023-12-20T04:36:48;100550.72;;;5.02;100.00
64933;BME280;51446;53.850;10.662;2023-12-20T04:39:14;100549.00;;;5.03;100.00
64933;BME280;51446;53.850;10.662;2023-12-20T04:41:42;100540.31;;;5.02;100.00
64933;BME280;51446;53.850;10.662;2023-12-20T04:44:07;100538.63;;;5.03;100.00
64933;BME280;51446;53.850;10.662;2023-12-20T04:46:32;100529.97;;;5.04;100.00
64933;BME280;51446;53.850;10.662;2023-12-20T04:48:57;100531.94;;;5.11;100.00
64933;BME280;51446;53.850;10.662;2023-12-20T04:51:23;100518.38;;;5.20;100.00
64933;BME280;51446;53.850;10.662;2023-12-20T04:53:48;100520.63;;;5.09;100.00
64933;BME280;51446;53.850;10.662;2023-12-20T04:56:13;100520.00;;;5.16;100.00
64933;BME280;51446;53.850;10.662;2023-12-20T04:58:39;100518.03;;;5.09;100.00
64933;BME280;51446;53.850;10.662;2023-12-20T05:01:05;100515.38;;;5.08;100.00
64933;BME280;51446;53.850;10.662;2023-12-20T05:03:31;100515.53;;;5.12;100.00
64933;BME280;51446;53.850;10.662;2023-12-20T05:05:56;100512.88;;;5.11;100.00
64933;BME280;51446;53.850;10.662;2023-12-20T05:08:21;100512.25;;;5.18;100.00
64933;BME280;51446;53.850;10.662;2023-12-20T05:10:47;100512.16;;;5.15;100.00
64933;BME280;51446;53.850;10.662;2023-12-20T05:13:12;100499.22;;;5.16;100.00
64933;BME280;51446;53.850;10.662;2023-12-20T05:15:38;100507.97;;;5.20;100.00
64933;BME280;51446;53.850;10.662;2023-12-20T05:18:03;100502.78;;;5.20;100.00
64933;BME280;51446;53.850;10.662;2023-12-20T05:20:29;100497.53;;;5.18;100.00
64933;BME280;51446;53.850;10.662;2023-12-20T05:22:54;100494.09;;;5.19;100.00
64933;BME280;51446;53.850;10.662;2023-12-20T05:25:19;100496.72;;;5.19;100.00
64933;BME280;51446;53.850;10.662;2023-12-20T05:27:45;100490.72;;;5.22;100.00
64933;BME280;51446;53.850;10.662;2023-12-20T05:30:10;100493.38;;;5.24;100.00
64933;BME280;51446;53.850;10.662;2023-12-20T05:32:36;100492.78;;;5.32;100.00
64933;BME280;51446;53.850;10.662;2023-12-20T05:35:01;100491.47;;;5.18;100.00
64933;BME280;51446;53.850;10.662;2023-12-20T05:37:26;100487.31;;;5.23;100.00
64933;BME280;51446;53.850;10.662;2023-12-20T05:39:51;100486.66;;;5.30;100.00
64933;BME280;51446;53.850;10.662;2023-12-20T05:42:17;100495.38;;;5.32;100.00
64933;BME280;51446;53.850;10.662;2023-12-20T05:44:42;100504.69;;;5.26;100.00
64933;BME280;51446;53.850;10.662;2023-12-20T05:47:07;100486.31;;;5.19;100.00
64933;BME280;51446;53.850;10.662;2023-12-20T05:49:32;100477.78;;;5.24;100.00
64933;BME280;51446;53.850;10.662;2023-12-20T05:51:58;100477.81;;;5.25;100.00
64933;BME280;51446;53.850;10.662;2023-12-20T05:54:23;100472.72;;;5.28;100.00
64933;BME280;51446;53.850;10.662;2023-12-20T05:56:48;100475.31;;;5.28;100.00
64933;BME280;51446;53.850;10.662;2023-12-20T05:59:13;100470.13;;;5.28;100.00
64933;BME280;51446;53.850;10.662;2023-12-20T06:01:39;100455.97;;;5.20;100.00
64933;BME280;51446;53.850;10.662;2023-12-20T06:04:04;100461.31;;;5.23;100.00
64933;BME280;51446;53.850;10.662;2023-12-20T06:06:29;100463.06;;;5.24;100.00
64933;BME280;51446;53.850;10.662;2023-12-20T06:08:55;100453.50;;;5.23;100.00
64933;BME280;51446;53.850;10.662;2023-12-20T06:11:20;100455.97;;;5.20;100.00
64933;BME280;51446;53.850;10.662;2023-12-20T06:13:46;100456.94;;;5.22;100.00
64933;BME280;51446;53.850;10.662;2023-12-20T06:16:11;100453.97;;;5.11;100.00
64933;BME280;51446;53.850;10.662;2023-12-20T06:18:36;100448.78;;;5.11;100.00
64933;BME280;51446;53.850;10.662;2023-12-20T06:21:02;100447.91;;;5.11;100.00
64933;BME280;51446;53.850;10.662;2023-12-20T06:23:27;100453.28;;;5.17;100.00
64933;BME280;51446;53.850;10.662;2023-12-20T06:25:53;100443.78;;;5.17;100.00
64933;BME280;51446;53.850;10.662;2023-12-20T06:28:18;100441.38;;;5.24;100.00
64933;BME280;51446;53.850;10.662;2023-12-20T06:30:43;100441.56;;;5.30;100.00
64933;BME280;51446;53.850;10.662;2023-12-20T06:33:09;100439.66;;;5.24;100.00
64933;BME280;51446;53.850;10.662;2023-12-20T06:35:36;100439.78;;;5.27;100.00
64933;BME280;51446;53.850;10.662;2023-12-20T06:38:01;100442.38;;;5.27;100.00
64933;BME280;51446;53.850;10.662;2023-12-20T06:40:27;100420.53;;;5.22;100.00
64933;BME280;51446;53.850;10.662;2023-12-20T06:42:52;100434.19;;;5.15;100.00
64933;BME280;51446;53.850;10.662;2023-12-20T06:45:17;100422.09;;;5.17;100.00
64933;BME280;51446;53.850;10.662;2023-12-20T06:47:42;100417.94;;;5.22;100.00
64933;BME280;51446;53.850;10.662;2023-12-20T06:50:08;100413.38;;;5.15;100.00
64933;BME280;51446;53.850;10.662;2023-12-20T06:52:33;100413.44;;;5.16;100.00
64933;BME280;51446;53.850;10.662;2023-12-20T06:54:58;100405.34;;;5.07;100.00
64933;BME280;51446;53.850;10.662;2023-12-20T06:57:23;100405.41;;;5.09;100.00
64933;BME280;51446;53.850;10.662;2023-12-20T06:59:51;100393.03;;;5.01;100.00
64933;BME280;51446;53.850;10.662;2023-12-20T07:02:17;100400.88;;;5.03;100.00
64933;BME280;51446;53.850;10.662;2023-12-20T07:04:42;100387.00;;;5.02;100.00
64933;BME280;51446;53.850;10.662;2023-12-20T07:07:07;100387.94;;;5.04;100.00
64933;BME280;51446;53.850;10.662;2023-12-20T07:09:33;100388.81;;;5.05;100.00
64933;BME280;51446;53.850;10.662;2023-12-20T07:11:58;100392.09;;;4.99;100.00
64933;BME280;51446;53.850;10.662;2023-12-20T07:14:24;100389.50;;;4.99;100.00
64933;BME280;51446;53.850;10.662;2023-12-20T07:16:49;100372.03;;;4.95;100.00
64933;BME280;51446;53.850;10.662;2023-12-20T07:19:14;100382.44;;;4.95;100.00
64933;BME280;51446;53.850;10.662;2023-12-20T07:21:39;100383.16;;;4.91;100.00
64933;BME280;51446;53.850;10.662;2023-12-20T07:24:05;100390.94;;;4.91;100.00
64933;BME280;51446;53.850;10.662;2023-12-20T07:26:30;100393.78;;;4.97;100.00
64933;BME280;51446;53.850;10.662;2023-12-20T07:28:55;100400.19;;;5.09;100.00
64933;BME280;51446;53.850;10.662;2023-12-20T07:31:20;100400.34;;;5.13;100.00
64933;BME280;51446;53.850;10.662;2023-12-20T07:33:46;100403.91;;;5.17;100.00
64933;BME280;51446;53.850;10.662;2023-12-20T07:36:12;100404.75;;;5.16;100.00
64933;BME280;51446;53.850;10.662;2023-12-20T07:38:37;100409.28;;;5.21;100.00
64933;BME280;51446;53.850;10.662;2023-12-20T07:41:03;100422.44;;;5.28;100.00
64933;BME280;51446;53.850;10.662;2023-12-20T07:43:28;100400.63;;;5.22;100.00
64933;BME280;51446;53.850;10.662;2023-12-20T07:45:53;100397.16;;;5.22;100.00
64933;BME280;51446;53.850;10.662;2023-12-20T07:48:18;100396.06;;;5.15;100.00
64933;BME280;51446;53.850;10.662;2023-12-20T07:50:44;100384.97;;;5.21;100.00
64933;BME280;51446;53.850;10.662;2023-12-20T07:53:09;100378.84;;;5.19;100.00
64933;BME280;51446;53.850;10.662;2023-12-20T07:55:34;100378.13;;;5.23;100.00
64933;BME280;51446;53.850;10.662;2023-12-20T07:58:00;100386.75;;;5.22;100.00
64933;BME280;51446;53.850;10.662;2023-12-20T08:00:25;100382.38;;;5.21;100.00
64933;BME280;51446;53.850;10.662;2023-12-20T08:02:50;100370.16;;;5.18;100.00
64933;BME280;51446;53.850;10.662;2023-12-20T08:05:16;100371.25;;;5.25;100.00
64933;BME280;51446;53.850;10.662;2023-12-20T08:07:41;100368.59;;;5.24;100.00
64933;BME280;51446;53.850;10.662;2023-12-20T08:10:07;100358.06;;;5.19;100.00
64933;BME280;51446;53.850;10.662;2023-12-20T08:12:32;100365.31;;;5.29;100.00
64933;BME280;51446;53.850;10.662;2023-12-20T08:14:58;100374.56;;;5.21;100.00
64933;BME280;51446;53.850;10.662;2023-12-20T08:17:23;100362.78;;;5.32;100.00
64933;BME280;51446;53.850;10.662;2023-12-20T08:19:49;100370.41;;;5.26;100.00
64933;BME280;51446;53.850;10.662;2023-12-20T08:22:14;100367.69;;;5.21;100.00
64933;BME280;51446;53.850;10.662;2023-12-20T08:24:39;100361.50;;;5.18;100.00
64933;BME280;51446;53.850;10.662;2023-12-20T08:27:05;100361.00;;;5.31;100.00
64933;BME280;51446;53.850;10.662;2023-12-20T08:29:30;100363.53;;;5.28;100.00
64933;BME280;51446;53.850;10.662;2023-12-20T08:31:55;100360.28;;;5.35;100.00
64933;BME280;51446;53.850;10.662;2023-12-20T08:34:21;100354.22;;;5.35;100.00
64933;BME280;51446;53.850;10.662;2023-12-20T08:36:46;100353.00;;;5.24;100.00
64933;BME280;51446;53.850;10.662;2023-12-20T08:39:11;100332.34;;;5.28;100.00
64933;BME280;51446;53.850;10.662;2023-12-20T08:41:37;100339.34;;;5.31;100.00
64933;BME280;51446;53.850;10.662;2023-12-20T08:44:02;100316.81;;;5.31;100.00
64933;BME280;51446;53.850;10.662;2023-12-20T08:46:27;100316.03;;;5.34;100.00
64933;BME280;51446;53.850;10.662;2023-12-20T08:48:52;100304.94;;;5.39;100.00
64933;BME280;51446;53.850;10.662;2023-12-20T08:51:18;100295.47;;;5.42;100.00
64933;BME280;51446;53.850;10.662;2023-12-20T08:53:44;100300.72;;;5.43;100.00
64933;BME280;51446;53.850;10.662;2023-12-20T08:56:10;100283.16;;;5.66;100.00
64933;BME280;51446;53.850;10.662;2023-12-20T08:58:35;100276.94;;;5.61;100.00
64933;BME280;51446;53.850;10.662;2023-12-20T09:01:01;100281.34;;;5.64;100.00
64933;BME280;51446;53.850;10.662;2023-12-20T09:03:26;100282.34;;;5.69;100.00
64933;BME280;51446;53.850;10.662;2023-12-20T09:05:51;100281.50;;;5.70;100.00
64933;BME280;51446;53.850;10.662;2023-12-20T09:08:16;100271.19;;;5.73;100.00
64933;BME280;51446;53.850;10.662;2023-12-20T09:10:42;100265.38;;;5.83;100.00
64933;BME280;51446;53.850;10.662;2023-12-20T09:13:07;100277.53;;;5.83;100.00
64933;BME280;51446;53.850;10.662;2023-12-20T09:15:32;100267.13;;;5.83;100.00
64933;BME280;51446;53.850;10.662;2023-12-20T09:17:59;100263.25;;;5.68;100.00
64933;BME280;51446;53.850;10.662;2023-12-20T09:20:24;100284.28;;;5.76;100.00
64933;BME280;51446;53.850;10.662;2023-12-20T09:22:50;100287.09;;;5.84;100.00
64933;BME280;51446;53.850;10.662;2023-12-20T09:25:15;100291.09;;;5.71;100.00
64933;BME280;51446;53.850;10.662;2023-12-20T09:27:42;100296.63;;;5.53;100.00
64933;BME280;51446;53.850;10.662;2023-12-20T09:30:08;100296.31;;;5.41;100.00
64933;BME280;51446;53.850;10.662;2023-12-20T09:32:33;100310.19;;;5.41;100.00
64933;BME280;51446;53.850;10.662;2023-12-20T09:34:58;100300.41;;;5.32;100.00
64933;BME280;51446;53.850;10.662;2023-12-20T09:37:27;100298.31;;;5.20;100.00
64933;BME280;51446;53.850;10.662;2023-12-20T09:39:55;100300.97;;;5.22;100.00
64933;BME280;51446;53.850;10.662;2023-12-20T09:42:28;100288.75;;;5.19;100.00
64933;BME280;51446;53.850;10.662;2023-12-20T09:44:55;100298.22;;;5.17;100.00
64933;BME280;51446;53.850;10.662;2023-12-20T09:47:22;100307.72;;;5.17;100.00
64933;BME280;51446;53.850;10.662;2023-12-20T09:49:50;100311.19;;;5.16;100.00
64933;BME280;51446;53.850;10.662;2023-12-20T09:52:15;100305.69;;;5.07;100.00
64933;BME280;51446;53.850;10.662;2023-12-20T09:54:43;100307.50;;;5.09;100.00
64933;BME280;51446;53.850;10.662;2023-12-20T09:57:09;100303.09;;;5.07;100.00
64933;BME280;51446;53.850;10.662;2023-12-20T09:59:35;100304.53;;;4.97;100.00
64933;BME280;51446;53.850;10.662;2023-12-20T10:02:01;100311.03;;;5.11;100.00
64933;BME280;51446;53.850;10.662;2023-12-20T10:04:27;100314.13;;;4.99;100.00
64933;BME280;51446;53.850;10.662;2023-12-20T10:06:53;100303.78;;;5.01;100.00
64933;BME280;51446;53.850;10.662;2023-12-20T10:09:18;100313.53;;;5.08;100.00
64933;BME280;51446;53.850;10.662;2023-12-20T10:11:43;100314.38;;;5.07;100.00
64933;BME280;51446;53.850;10.662;2023-12-20T10:14:10;100299.78;;;4.83;100.00
64933;BME280;51446;53.850;10.662;2023-12-20T10:16:36;100307.88;;;4.93;100.00
64933;BME280;51446;53.850;10.662;2023-12-20T10:19:01;100298.47;;;4.69;100.00
64933;BME280;51446;53.850;10.662;2023-12-20T10:21:26;100303.34;;;4.85;100.00
64933;BME280;51446;53.850;10.662;2023-12-20T10:23:54;100309.22;;;4.80;100.00
64933;BME280;51446;53.850;10.662;2023-12-20T10:26:23;100315.09;;;4.74;100.00
64933;BME280;51446;53.850;10.662;2023-12-20T10:28:56;100310.53;;;4.67;100.00
64933;BME280;51446;53.850;10.662;2023-12-20T10:31:31;100330.72;;;4.76;100.00
64933;BME280;51446;53.850;10.662;2023-12-20T10:33:58;100316.09;;;4.79;100.00
64933;BME280;51446;53.850;10.662;2023-12-20T10:36:25;100318.19;;;4.91;100.00
64933;BME280;51446;53.850;10.662;2023-12-20T10:38:52;100299.53;;;5.32;100.00
64933;BME280;51446;53.850;10.662;2023-12-20T10:41:25;100296.00;;;5.62;100.00
64933;BME280;51446;53.850;10.662;2023-12-20T10:43:51;100312.59;;;6.29;100.00
64933;BME280;51446;53.850;10.662;2023-12-20T10:46:19;100305.63;;;5.64;100.00
64933;BME280;51446;53.850;10.662;2023-12-20T10:48:45;100300.59;;;5.40;100.00
64933;BME280;51446;53.850;10.662;2023-12-20T10:51:11;100297.13;;;5.39;100.00
64933;BME280;51446;53.850;10.662;2023-12-20T10:53:40;100288.88;;;4.95;100.00
64933;BME280;51446;53.850;10.662;2023-12-20T10:56:07;100304.72;;;5.03;100.00
64933;BME280;51446;53.850;10.662;2023-12-20T10:58:35;100298.38;;;4.93;100.00
64933;BME280;51446;53.850;10.662;2023-12-20T11:01:04;100280.81;;;5.15;100.00
64933;BME280;51446;53.850;10.662;2023-12-20T11:03:34;100295.72;;;5.20;100.00
64933;BME280;51446;53.850;10.662;2023-12-20T11:09:11;100308.53;;;5.14;100.00
64933;BME280;51446;53.850;10.662;2023-12-20T11:14:50;100310.09;;;5.09;100.00
64933;BME280;51446;53.850;10.662;2023-12-20T11:17:16;100291.03;;;4.80;100.00
64933;BME280;51446;53.850;10.662;2023-12-20T11:20:04;100309.09;;;4.77;100.00
64933;BME280;51446;53.850;10.662;2023-12-20T11:22:31;100287.44;;;4.76;100.00
64933;BME280;51446;53.850;10.662;2023-12-20T11:25:14;100301.19;;;4.74;100.00
64933;BME280;51446;53.850;10.662;2023-12-20T11:30:55;100291.50;;;4.68;100.00
64933;BME280;51446;53.850;10.662;2023-12-20T11:33:39;100290.38;;;5.16;100.00
64933;BME280;51446;53.850;10.662;2023-12-20T11:36:15;100271.16;;;5.11;100.00
64933;BME280;51446;53.850;10.662;2023-12-20T11:38:57;100290.34;;;5.14;100.00
64933;BME280;51446;53.850;10.662;2023-12-20T11:42:04;100270.25;;;5.09;100.00
64933;BME280;51446;53.850;10.662;2023-12-20T11:44:33;100267.44;;;5.02;100.00
64933;BME280;51446;53.850;10.662;2023-12-20T11:46:58;100283.66;;;4.94;100.00
64933;BME280;51446;53.850;10.662;2023-12-20T11:49:24;100286.66;;;5.08;100.00
64933;BME280;51446;53.850;10.662;2023-12-20T11:51:50;100284.19;;;4.83;100.00
64933;BME280;51446;53.850;10.662;2023-12-20T11:54:15;100293.00;;;5.16;100.00
64933;BME280;51446;53.850;10.662;2023-12-20T11:56:41;100295.91;;;4.98;100.00
64933;BME280;51446;53.850;10.662;2023-12-20T11:59:08;100278.84;;;5.36;100.00
64933;BME280;51446;53.850;10.662;2023-12-20T12:01:33;100286.81;;;5.43;100.00
64933;BME280;51446;53.850;10.662;2023-12-20T12:04:05;100280.34;;;5.28;100.00
64933;BME280;51446;53.850;10.662;2023-12-20T12:06:32;100280.72;;;5.41;100.00
64933;BME280;51446;53.850;10.662;2023-12-20T12:08:57;100280.41;;;5.31;100.00
64933;BME280;51446;53.850;10.662;2023-12-20T12:11:23;100282.06;;;5.28;100.00
64933;BME280;51446;53.850;10.662;2023-12-20T12:13:48;100280.72;;;5.41;100.00
64933;BME280;51446;53.850;10.662;2023-12-20T12:16:20;100286.94;;;5.47;100.00
64933;BME280;51446;53.850;10.662;2023-12-20T12:18:45;100272.44;;;5.55;100.00
64933;BME280;51446;53.850;10.662;2023-12-20T12:21:18;100284.06;;;5.68;100.00
64933;BME280;51446;53.850;10.662;2023-12-20T12:23:44;100269.63;;;5.48;100.00
64933;BME280;51446;53.850;10.662;2023-12-20T12:26:09;100270.44;;;5.45;100.00
64933;BME280;51446;53.850;10.662;2023-12-20T12:28:34;100261.31;;;5.29;100.00
64933;BME280;51446;53.850;10.662;2023-12-20T12:31:00;100269.91;;;5.27;100.00
64933;BME280;51446;53.850;10.662;2023-12-20T12:33:26;100270.06;;;5.33;100.00
64933;BME280;51446;53.850;10.662;2023-12-20T12:35:51;100270.34;;;5.42;100.00
64933;BME280;51446;53.850;10.662;2023-12-20T12:38:20;100273.66;;;5.68;100.00
64933;BME280;51446;53.850;10.662;2023-12-20T12:40:45;100257.88;;;5.94;100.00
64933;BME280;51446;53.850;10.662;2023-12-20T12:43:11;100269.28;;;5.67;100.00